sensor_id;sensor_type;location;lat;lon;timestamp;P1;durP1;ratioP1;P2;durP2;ratioP2
22470;SDS011;11402;51.374;6.594;2022-11-15T00:00:23;16.20;;;11.95;;
22470;SDS011;11402;51.374;6.594;2022-11-15T00:02:49;16.33;;;12.13;;
22470;SDS011;11402;51.374;6.594;2022-11-15T00:05:14;16.00;;;11.85;;
22470;SDS011;11402;51.374;6.594;2022-11-15T00:07:40;17.60;;;12.45;;
22470;SDS011;11402;51.374;6.594;2022-11-15T00:10:06;19.80;;;12.73;;
22470;SDS011;11402;51.374;6.594;2022-11-15T00:12:31;17.58;;;12.05;;
22470;SDS011;11402;51.374;6.594;2022-11-15T00:14:57;15.93;;;11.43;;
22470;SDS011;11402;51.374;6.594;2022-11-15T00:17:22;16.77;;;12.82;;
22470;SDS011;11402;51.374;6.594;2022-11-15T00:19:48;16.65;;;11.52;;
22470;SDS011;11402;51.374;6.594;2022-11-15T00:22:14;15.30;;;11.27;;
22470;SDS011;11402;51.374;6.594;2022-11-15T00:24:39;19.15;;;12.45;;
22470;SDS011;11402;51.374;6.594;2022-11-15T00:27:05;19.45;;;12.77;;
22470;SDS011;11402;51.374;6.594;2022-11-15T00:29:31;15.80;;;12.00;;
22470;SDS011;11402;51.374;6.594;2022-11-15T00:31:56;17.08;;;12.27;;
22470;SDS011;11402;51.374;6.594;2022-11-15T00:34:22;17.80;;;11.95;;
22470;SDS011;11402;51.374;6.594;2022-11-15T00:36:47;21.33;;;12.57;;
22470;SDS011;11402;51.374;6.594;2022-11-15T00:39:13;16.33;;;11.75;;
22470;SDS011;11402;51.374;6.594;2022-11-15T00:41:38;18.77;;;11.63;;
22470;SDS011;11402;51.374;6.594;2022-11-15T00:44:04;17.05;;;12.88;;
22470;SDS011;11402;51.374;6.594;2022-11-15T00:46:29;18.95;;;11.82;;
22470;SDS011;11402;51.374;6.594;2022-11-15T00:48:55;18.58;;;11.00;;
22470;SDS011;11402;51.374;6.594;2022-11-15T00:51:20;17.13;;;11.57;;
22470;SDS011;11402;51.374;6.594;2022-11-15T00:53:46;17.42;;;11.90;;
22470;SDS011;11402;51.374;6.594;2022-11-15T00:56:12;18.63;;;12.27;;
22470;SDS011;11402;51.374;6.594;2022-11-15T00:58:37;19.80;;;12.30;;
22470;SDS011;11402;51.374;6.594;2022-11-15T01:01:10;17.45;;;12.13;;
22470;SDS011;11402;51.374;6.594;2022-11-15T01:03:38;17.58;;;11.68;;
22470;SDS011;11402;51.374;6.594;2022-11-15T01:06:05;15.80;;;11.32;;
22470;SDS011;11402;51.374;6.594;2022-11-15T01:08:31;17.33;;;11.45;;
22470;SDS011;11402;51.374;6.594;2022-11-15T01:11:04;16.92;;;10.93;;
22470;SDS011;11402;51.374;6.594;2022-11-15T01:13:32;15.02;;;11.10;;
22470;SDS011;11402;51.374;6.594;2022-11-15T01:15:59;17.40;;;11.27;;
22470;SDS011;11402;51.374;6.594;2022-11-15T01:18:31;17.15;;;10.95;;
22470;SDS011;11402;51.374;6.594;2022-11-15T01:20:57;17.52;;;11.48;;
22470;SDS011;11402;51.374;6.594;2022-11-15T01:23:22;15.52;;;11.02;;
22470;SDS011;11402;51.374;6.594;2022-11-15T01:25:48;16.60;;;10.50;;
22470;SDS011;11402;51.374;6.594;2022-11-15T01:28:13;16.25;;;11.07;;
22470;SDS011;11402;51.374;6.594;2022-11-15T01:30:39;15.65;;;10.50;;
22470;SDS011;11402;51.374;6.594;2022-11-15T01:33:04;17.95;;;11.57;;
22470;SDS011;11402;51.374;6.594;2022-11-15T01:35:30;15.63;;;10.63;;
22470;SDS011;11402;51.374;6.594;2022-11-15T01:37:55;14.65;;;10.68;;
22470;SDS011;11402;51.374;6.594;2022-11-15T01:40:21;13.20;;;10.15;;
22470;SDS011;11402;51.374;6.594;2022-11-15T01:42:47;17.23;;;10.60;;
22470;SDS011;11402;51.374;6.594;2022-11-15T01:45:13;13.20;;;9.75;;
22470;SDS011;11402;51.374;6.594;2022-11-15T01:47:44;15.50;;;10.30;;
22470;SDS011;11402;51.374;6.594;2022-11-15T01:50:14;17.40;;;10.60;;
22470;SDS011;11402;51.374;6.594;2022-11-15T01:52:42;16.17;;;10.27;;
22470;SDS011;11402;51.374;6.594;2022-11-15T01:55:09;16.35;;;9.90;;
22470;SDS011;11402;51.374;6.594;2022-11-15T01:57:41;15.30;;;10.30;;
22470;SDS011;11402;51.374;6.594;2022-11-15T02:00:08;15.93;;;10.65;;
22470;SDS011;11402;51.374;6.594;2022-11-15T02:02:34;16.02;;;10.20;;
22470;SDS011;11402;51.374;6.594;2022-11-15T02:05:02;15.25;;;10.35;;
22470;SDS011;11402;51.374;6.594;2022-11-15T02:07:28;14.70;;;10.43;;
22470;SDS011;11402;51.374;6.594;2022-11-15T02:09:55;14.95;;;10.57;;
22470;SDS011;11402;51.374;6.594;2022-11-15T02:14:54;16.70;;;10.70;;
22470;SDS011;11402;51.374;6.594;2022-11-15T02:37:03;15.23;;;10.00;;
22470;SDS011;11402;51.374;6.594;2022-11-15T02:39:41;15.23;;;9.52;;
22470;SDS011;11402;51.374;6.594;2022-11-15T02:42:26;15.82;;;10.32;;
22470;SDS011;11402;51.374;6.594;2022-11-15T02:45:13;13.65;;;9.40;;
22470;SDS011;11402;51.374;6.594;2022-11-15T02:47:48;17.05;;;10.25;;
22470;SDS011;11402;51.374;6.594;2022-11-15T02:50:18;12.98;;;9.57;;
22470;SDS011;11402;51.374;6.594;2022-11-15T02:52:50;13.43;;;9.10;;
22470;SDS011;11402;51.374;6.594;2022-11-15T02:55:26;13.45;;;9.20;;
22470;SDS011;11402;51.374;6.594;2022-11-15T03:00:47;15.10;;;8.95;;
22470;SDS011;11402;51.374;6.594;2022-11-15T03:03:29;13.18;;;8.32;;
22470;SDS011;11402;51.374;6.594;2022-11-15T03:08:40;16.58;;;9.35;;
22470;SDS011;11402;51.374;6.594;2022-11-15T03:11:20;11.57;;;8.93;;
22470;SDS011;11402;51.374;6.594;2022-11-15T03:16:30;12.65;;;8.50;;
22470;SDS011;11402;51.374;6.594;2022-11-15T03:19:32;13.10;;;9.13;;
22470;SDS011;11402;51.374;6.594;2022-11-15T03:22:06;12.30;;;8.75;;
22470;SDS011;11402;51.374;6.594;2022-11-15T03:24:36;16.38;;;8.95;;
22470;SDS011;11402;51.374;6.594;2022-11-15T03:27:05;13.70;;;8.85;;
22470;SDS011;11402;51.374;6.594;2022-11-15T03:29:35;14.32;;;8.50;;
22470;SDS011;11402;51.374;6.594;2022-11-15T03:32:11;11.80;;;9.38;;
22470;SDS011;11402;51.374;6.594;2022-11-15T03:34:42;12.45;;;9.07;;
22470;SDS011;11402;51.374;6.594;2022-11-15T03:37:18;17.80;;;9.75;;
22470;SDS011;11402;51.374;6.594;2022-11-15T03:39:47;13.65;;;9.27;;
22470;SDS011;11402;51.374;6.594;2022-11-15T03:44:51;17.20;;;9.77;;
22470;SDS011;11402;51.374;6.594;2022-11-15T03:47:30;17.15;;;10.02;;
22470;SDS011;11402;51.374;6.594;2022-11-15T03:50:11;13.07;;;9.05;;
22470;SDS011;11402;51.374;6.594;2022-11-15T03:52:38;15.85;;;10.02;;
22470;SDS011;11402;51.374;6.594;2022-11-15T03:55:06;16.67;;;9.75;;
22470;SDS011;11402;51.374;6.594;2022-11-15T03:57:34;14.43;;;9.07;;
22470;SDS011;11402;51.374;6.594;2022-11-15T03:59:59;13.38;;;9.68;;
22470;SDS011;11402;51.374;6.594;2022-11-15T04:02:25;15.05;;;9.02;;
22470;SDS011;11402;51.374;6.594;2022-11-15T04:04:51;14.38;;;9.93;;
22470;SDS011;11402;51.374;6.594;2022-11-15T04:07:16;13.55;;;9.05;;
22470;SDS011;11402;51.374;6.594;2022-11-15T04:09:42;13.00;;;9.50;;
22470;SDS011;11402;51.374;6.594;2022-11-15T04:12:26;15.73;;;9.25;;
22470;SDS011;11402;51.374;6.594;2022-11-15T04:15:05;15.38;;;9.65;;
22470;SDS011;11402;51.374;6.594;2022-11-15T04:17:48;14.18;;;9.30;;
22470;SDS011;11402;51.374;6.594;2022-11-15T04:20:15;12.48;;;9.20;;
22470;SDS011;11402;51.374;6.594;2022-11-15T04:23:02;14.27;;;9.32;;
22470;SDS011;11402;51.374;6.594;2022-11-15T04:25:49;12.65;;;9.07;;
22470;SDS011;11402;51.374;6.594;2022-11-15T04:28:17;14.02;;;9.38;;
22470;SDS011;11402;51.374;6.594;2022-11-15T04:30:43;13.43;;;9.15;;
22470;SDS011;11402;51.374;6.594;2022-11-15T04:33:08;10.60;;;8.77;;
22470;SDS011;11402;51.374;6.594;2022-11-15T04:35:34;13.52;;;8.73;;
22470;SDS011;11402;51.374;6.594;2022-11-15T04:38:00;12.45;;;9.20;;
22470;SDS011;11402;51.374;6.594;2022-11-15T04:40:26;12.15;;;8.32;;
22470;SDS011;11402;51.374;6.594;2022-11-15T04:42:52;14.07;;;8.68;;
22470;SDS011;11402;51.374;6.594;2022-11-15T04:45:18;10.88;;;8.82;;
22470;SDS011;11402;51.374;6.594;2022-11-15T04:47:44;11.02;;;8.35;;
22470;SDS011;11402;51.374;6.594;2022-11-15T04:50:10;11.05;;;8.63;;
22470;SDS011;11402;51.374;6.594;2022-11-15T04:52:40;11.75;;;8.48;;
22470;SDS011;11402;51.374;6.594;2022-11-15T04:55:14;11.77;;;8.43;;
22470;SDS011;11402;51.374;6.594;2022-11-15T04:57:40;11.80;;;8.60;;
22470;SDS011;11402;51.374;6.594;2022-11-15T05:00:09;11.30;;;7.65;;
22470;SDS011;11402;51.374;6.594;2022-11-15T05:02:37;13.57;;;8.32;;
22470;SDS011;11402;51.374;6.594;2022-11-15T05:05:21;13.00;;;8.95;;
22470;SDS011;11402;51.374;6.594;2022-11-15T05:07:48;15.52;;;8.98;;
22470;SDS011;11402;51.374;6.594;2022-11-15T05:10:13;12.00;;;9.00;;
22470;SDS011;11402;51.374;6.594;2022-11-15T05:12:39;12.60;;;8.52;;
22470;SDS011;11402;51.374;6.594;2022-11-15T05:15:05;14.50;;;9.27;;
22470;SDS011;11402;51.374;6.594;2022-11-15T05:17:31;16.80;;;9.57;;
22470;SDS011;11402;51.374;6.594;2022-11-15T05:19:56;14.68;;;9.20;;
22470;SDS011;11402;51.374;6.594;2022-11-15T05:22:22;11.27;;;8.60;;
22470;SDS011;11402;51.374;6.594;2022-11-15T05:24:48;11.73;;;8.43;;
22470;SDS011;11402;51.374;6.594;2022-11-15T05:27:13;13.85;;;8.90;;
22470;SDS011;11402;51.374;6.594;2022-11-15T05:29:39;12.93;;;8.77;;
22470;SDS011;11402;51.374;6.594;2022-11-15T05:32:05;11.68;;;8.57;;
22470;SDS011;11402;51.374;6.594;2022-11-15T05:34:32;11.32;;;8.02;;
22470;SDS011;11402;51.374;6.594;2022-11-15T05:36:57;12.88;;;8.27;;
22470;SDS011;11402;51.374;6.594;2022-11-15T05:39:24;12.38;;;8.15;;
22470;SDS011;11402;51.374;6.594;2022-11-15T05:41:52;10.93;;;8.52;;
22470;SDS011;11402;51.374;6.594;2022-11-15T05:44:21;11.95;;;7.55;;
22470;SDS011;11402;51.374;6.594;2022-11-15T05:46:49;12.27;;;8.48;;
22470;SDS011;11402;51.374;6.594;2022-11-15T05:49:18;9.90;;;7.93;;
22470;SDS011;11402;51.374;6.594;2022-11-15T05:51:47;14.15;;;8.27;;
22470;SDS011;11402;51.374;6.594;2022-11-15T05:54:15;11.40;;;8.15;;
22470;SDS011;11402;51.374;6.594;2022-11-15T05:56:42;10.10;;;7.90;;
22470;SDS011;11402;51.374;6.594;2022-11-15T05:59:08;14.30;;;8.35;;
22470;SDS011;11402;51.374;6.594;2022-11-15T06:01:35;12.25;;;7.57;;
22470;SDS011;11402;51.374;6.594;2022-11-15T06:04:01;11.05;;;7.82;;
22470;SDS011;11402;51.374;6.594;2022-11-15T06:06:27;11.18;;;7.45;;
22470;SDS011;11402;51.374;6.594;2022-11-15T06:08:53;13.52;;;8.05;;
22470;SDS011;11402;51.374;6.594;2022-11-15T06:11:19;9.90;;;7.30;;
22470;SDS011;11402;51.374;6.594;2022-11-15T06:13:44;11.20;;;7.75;;
22470;SDS011;11402;51.374;6.594;2022-11-15T06:16:10;10.52;;;7.75;;
22470;SDS011;11402;51.374;6.594;2022-11-15T06:18:36;9.98;;;7.90;;
22470;SDS011;11402;51.374;6.594;2022-11-15T06:21:02;11.48;;;7.18;;
22470;SDS011;11402;51.374;6.594;2022-11-15T06:23:28;10.65;;;7.32;;
22470;SDS011;11402;51.374;6.594;2022-11-15T06:25:57;9.30;;;7.57;;
22470;SDS011;11402;51.374;6.594;2022-11-15T06:28:24;13.30;;;7.40;;
22470;SDS011;11402;51.374;6.594;2022-11-15T06:30:50;8.95;;;7.00;;
22470;SDS011;11402;51.374;6.594;2022-11-15T06:33:15;9.80;;;7.20;;
22470;SDS011;11402;51.374;6.594;2022-11-15T06:35:41;11.48;;;7.10;;
22470;SDS011;11402;51.374;6.594;2022-11-15T06:38:07;13.35;;;7.45;;
22470;SDS011;11402;51.374;6.594;2022-11-15T06:40:34;10.18;;;6.90;;
22470;SDS011;11402;51.374;6.594;2022-11-15T06:43:01;9.18;;;6.63;;
22470;SDS011;11402;51.374;6.594;2022-11-15T06:45:28;9.77;;;6.32;;
22470;SDS011;11402;51.374;6.594;2022-11-15T06:47:54;9.60;;;6.82;;
22470;SDS011;11402;51.374;6.594;2022-11-15T06:50:20;7.97;;;6.43;;
22470;SDS011;11402;51.374;6.594;2022-11-15T06:52:46;9.38;;;6.75;;
22470;SDS011;11402;51.374;6.594;2022-11-15T06:55:11;7.35;;;6.40;;
22470;SDS011;11402;51.374;6.594;2022-11-15T06:57:42;10.10;;;6.53;;
22470;SDS011;11402;51.374;6.594;2022-11-15T07:00:12;7.95;;;6.47;;
22470;SDS011;11402;51.374;6.594;2022-11-15T07:02:38;9.27;;;6.03;;
22470;SDS011;11402;51.374;6.594;2022-11-15T07:05:03;7.32;;;6.32;;
22470;SDS011;11402;51.374;6.594;2022-11-15T07:07:29;7.30;;;6.00;;
22470;SDS011;11402;51.374;6.594;2022-11-15T07:09:54;7.65;;;6.00;;
22470;SDS011;11402;51.374;6.594;2022-11-15T07:12:20;9.10;;;6.28;;
22470;SDS011;11402;51.374;6.594;2022-11-15T07:14:45;9.55;;;5.68;;
22470;SDS011;11402;51.374;6.594;2022-11-15T07:17:11;8.55;;;5.20;;
22470;SDS011;11402;51.374;6.594;2022-11-15T07:19:36;5.57;;;4.90;;
22470;SDS011;11402;51.374;6.594;2022-11-15T07:22:02;7.15;;;4.07;;
22470;SDS011;11402;51.374;6.594;2022-11-15T07:24:28;41.35;;;29.98;;
22470;SDS011;11402;51.374;6.594;2022-11-15T07:26:53;6.38;;;4.20;;
22470;SDS011;11402;51.374;6.594;2022-11-15T07:29:19;7.55;;;3.35;;
22470;SDS011;11402;51.374;6.594;2022-11-15T07:31:44;3.22;;;1.98;;
22470;SDS011;11402;51.374;6.594;2022-11-15T07:34:10;3.00;;;2.00;;
22470;SDS011;11402;51.374;6.594;2022-11-15T07:36:35;3.95;;;1.83;;
22470;SDS011;11402;51.374;6.594;2022-11-15T07:39:01;3.90;;;1.77;;
22470;SDS011;11402;51.374;6.594;2022-11-15T07:41:27;3.97;;;1.85;;
22470;SDS011;11402;51.374;6.594;2022-11-15T07:43:54;3.78;;;1.70;;
22470;SDS011;11402;51.374;6.594;2022-11-15T07:46:19;2.05;;;1.55;;
22470;SDS011;11402;51.374;6.594;2022-11-15T07:48:45;2.45;;;1.75;;
22470;SDS011;11402;51.374;6.594;2022-11-15T07:51:11;2.45;;;1.55;;
22470;SDS011;11402;51.374;6.594;2022-11-15T07:53:38;3.85;;;1.50;;
22470;SDS011;11402;51.374;6.594;2022-11-15T07:56:06;5.22;;;1.60;;
22470;SDS011;11402;51.374;6.594;2022-11-15T07:58:32;8.95;;;1.33;;
22470;SDS011;11402;51.374;6.594;2022-11-15T08:00:58;2.45;;;1.35;;
22470;SDS011;11402;51.374;6.594;2022-11-15T08:03:23;6.47;;;2.45;;
22470;SDS011;11402;51.374;6.594;2022-11-15T08:05:52;1.20;;;1.10;;
22470;SDS011;11402;51.374;6.594;2022-11-15T08:08:18;1.95;;;1.23;;
22470;SDS011;11402;51.374;6.594;2022-11-15T08:10:43;4.97;;;1.50;;
22470;SDS011;11402;51.374;6.594;2022-11-15T08:13:10;2.33;;;1.25;;
22470;SDS011;11402;51.374;6.594;2022-11-15T08:15:36;2.97;;;1.30;;
22470;SDS011;11402;51.374;6.594;2022-11-15T08:18:10;2.78;;;1.63;;
22470;SDS011;11402;51.374;6.594;2022-11-15T08:20:40;4.32;;;1.40;;
22470;SDS011;11402;51.374;6.594;2022-11-15T08:23:07;3.58;;;1.77;;
22470;SDS011;11402;51.374;6.594;2022-11-15T08:25:35;4.10;;;1.50;;
22470;SDS011;11402;51.374;6.594;2022-11-15T08:28:02;6.30;;;2.00;;
22470;SDS011;11402;51.374;6.594;2022-11-15T08:30:29;5.75;;;2.92;;
22470;SDS011;11402;51.374;6.594;2022-11-15T08:32:56;5.55;;;2.22;;
22470;SDS011;11402;51.374;6.594;2022-11-15T08:35:23;4.50;;;2.13;;
22470;SDS011;11402;51.374;6.594;2022-11-15T08:37:48;2.75;;;1.40;;
22470;SDS011;11402;51.374;6.594;2022-11-15T08:40:14;3.63;;;1.45;;
22470;SDS011;11402;51.374;6.594;2022-11-15T08:42:40;3.22;;;1.40;;
22470;SDS011;11402;51.374;6.594;2022-11-15T08:45:06;3.00;;;1.30;;
22470;SDS011;11402;51.374;6.594;2022-11-15T08:47:32;2.33;;;1.40;;
22470;SDS011;11402;51.374;6.594;2022-11-15T08:49:58;4.30;;;1.80;;
22470;SDS011;11402;51.374;6.594;2022-11-15T08:52:24;5.03;;;2.00;;
22470;SDS011;11402;51.374;6.594;2022-11-15T08:54:49;2.65;;;2.00;;
22470;SDS011;11402;51.374;6.594;2022-11-15T08:57:15;6.55;;;1.90;;
22470;SDS011;11402;51.374;6.594;2022-11-15T08:59:41;2.50;;;1.60;;
22470;SDS011;11402;51.374;6.594;2022-11-15T09:02:06;4.28;;;1.50;;
22470;SDS011;11402;51.374;6.594;2022-11-15T09:04:37;3.40;;;1.83;;
22470;SDS011;11402;51.374;6.594;2022-11-15T09:07:08;3.05;;;1.42;;
22470;SDS011;11402;51.374;6.594;2022-11-15T09:09:35;1.95;;;1.50;;
22470;SDS011;11402;51.374;6.594;2022-11-15T09:12:01;3.35;;;1.70;;
22470;SDS011;11402;51.374;6.594;2022-11-15T09:14:26;2.58;;;1.58;;
22470;SDS011;11402;51.374;6.594;2022-11-15T09:16:52;3.63;;;1.60;;
22470;SDS011;11402;51.374;6.594;2022-11-15T09:19:17;2.40;;;1.70;;
22470;SDS011;11402;51.374;6.594;2022-11-15T09:21:43;25.77;;;17.25;;
22470;SDS011;11402;51.374;6.594;2022-11-15T09:24:08;3.58;;;2.70;;
22470;SDS011;11402;51.374;6.594;2022-11-15T09:26:34;3.03;;;1.60;;
22470;SDS011;11402;51.374;6.594;2022-11-15T09:29:00;1.80;;;1.10;;
22470;SDS011;11402;51.374;6.594;2022-11-15T09:31:26;4.90;;;1.60;;
22470;SDS011;11402;51.374;6.594;2022-11-15T09:33:52;2.67;;;1.88;;
22470;SDS011;11402;51.374;6.594;2022-11-15T09:36:17;3.45;;;1.50;;
22470;SDS011;11402;51.374;6.594;2022-11-15T09:38:43;1.98;;;1.48;;
22470;SDS011;11402;51.374;6.594;2022-11-15T09:43:49;5.78;;;3.13;;
22470;SDS011;11402;51.374;6.594;2022-11-15T09:46:44;4.38;;;1.60;;
22470;SDS011;11402;51.374;6.594;2022-11-15T09:49:24;4.85;;;1.90;;
22470;SDS011;11402;51.374;6.594;2022-11-15T09:51:50;3.95;;;1.80;;
22470;SDS011;11402;51.374;6.594;2022-11-15T09:59:43;3.53;;;2.58;;
22470;SDS011;11402;51.374;6.594;2022-11-15T10:02:20;7.47;;;2.80;;
22470;SDS011;11402;51.374;6.594;2022-11-15T10:05:07;4.82;;;2.65;;
22470;SDS011;11402;51.374;6.594;2022-11-15T10:07:40;4.95;;;2.60;;
22470;SDS011;11402;51.374;6.594;2022-11-15T10:13:37;5.90;;;2.50;;
22470;SDS011;11402;51.374;6.594;2022-11-15T10:19:13;4.85;;;2.08;;
22470;SDS011;11402;51.374;6.594;2022-11-15T10:24:32;7.22;;;1.80;;
22470;SDS011;11402;51.374;6.594;2022-11-15T10:27:00;2.85;;;1.60;;
22470;SDS011;11402;51.374;6.594;2022-11-15T10:29:26;33.42;;;25.45;;
22470;SDS011;11402;51.374;6.594;2022-11-15T10:31:51;8.45;;;3.22;;
22470;SDS011;11402;51.374;6.594;2022-11-15T10:34:18;5.57;;;1.80;;
22470;SDS011;11402;51.374;6.594;2022-11-15T10:36:56;3.58;;;1.85;;
22470;SDS011;11402;51.374;6.594;2022-11-15T10:39:23;6.15;;;2.42;;
22470;SDS011;11402;51.374;6.594;2022-11-15T10:41:50;4.25;;;1.98;;
22470;SDS011;11402;51.374;6.594;2022-11-15T10:46:41;3.47;;;1.90;;
22470;SDS011;11402;51.374;6.594;2022-11-15T10:49:15;6.25;;;1.90;;
22470;SDS011;11402;51.374;6.594;2022-11-15T10:51:44;4.07;;;2.08;;
22470;SDS011;11402;51.374;6.594;2022-11-15T10:54:27;6.63;;;2.00;;
22470;SDS011;11402;51.374;6.594;2022-11-15T10:56:54;3.90;;;1.80;;
22470;SDS011;11402;51.374;6.594;2022-11-15T10:59:31;6.93;;;1.67;;
22470;SDS011;11402;51.374;6.594;2022-11-15T11:02:00;4.28;;;1.77;;
22470;SDS011;11402;51.374;6.594;2022-11-15T11:04:26;4.03;;;1.65;;
22470;SDS011;11402;51.374;6.594;2022-11-15T11:06:52;3.10;;;1.70;;
22470;SDS011;11402;51.374;6.594;2022-11-15T11:11:59;4.85;;;2.20;;
22470;SDS011;11402;51.374;6.594;2022-11-15T11:14:27;6.00;;;1.90;;
22470;SDS011;11402;51.374;6.594;2022-11-15T11:28:17;4.47;;;1.85;;
22470;SDS011;11402;51.374;6.594;2022-11-15T11:34:15;4.72;;;1.70;;
22470;SDS011;11402;51.374;6.594;2022-11-15T11:42:37;7.00;;;1.70;;
22470;SDS011;11402;51.374;6.594;2022-11-15T11:48:14;4.38;;;1.63;;
22470;SDS011;11402;51.374;6.594;2022-11-15T11:51:00;3.95;;;1.42;;
22470;SDS011;11402;51.374;6.594;2022-11-15T11:53:42;4.65;;;1.60;;
22470;SDS011;11402;51.374;6.594;2022-11-15T11:56:22;9.00;;;2.10;;
22470;SDS011;11402;51.374;6.594;2022-11-15T11:58:54;2.33;;;1.43;;
22470;SDS011;11402;51.374;6.594;2022-11-15T12:01:26;3.88;;;1.60;;
22470;SDS011;11402;51.374;6.594;2022-11-15T12:03:59;4.63;;;1.67;;
22470;SDS011;11402;51.374;6.594;2022-11-15T12:11:54;3.25;;;1.40;;
22470;SDS011;11402;51.374;6.594;2022-11-15T12:14:42;6.72;;;1.50;;
22470;SDS011;11402;51.374;6.594;2022-11-15T12:17:12;5.93;;;1.30;;
22470;SDS011;11402;51.374;6.594;2022-11-15T12:19:39;3.65;;;1.25;;
22470;SDS011;11402;51.374;6.594;2022-11-15T12:22:12;3.83;;;1.20;;
22470;SDS011;11402;51.374;6.594;2022-11-15T12:24:51;3.35;;;1.10;;
22470;SDS011;11402;51.374;6.594;2022-11-15T12:27:19;4.13;;;1.10;;
22470;SDS011;11402;51.374;6.594;2022-11-15T12:30:17;3.78;;;1.00;;
22470;SDS011;11402;51.374;6.594;2022-11-15T12:32:53;7.57;;;1.20;;
22470;SDS011;11402;51.374;6.594;2022-11-15T12:35:27;2.92;;;1.08;;
22470;SDS011;11402;51.374;6.594;2022-11-15T12:37:53;3.95;;;1.00;;
22470;SDS011;11402;51.374;6.594;2022-11-15T12:40:39;3.30;;;1.00;;
22470;SDS011;11402;51.374;6.594;2022-11-15T12:43:40;5.97;;;1.30;;
22470;SDS011;11402;51.374;6.594;2022-11-15T12:46:11;6.70;;;1.23;;
22470;SDS011;11402;51.374;6.594;2022-11-15T12:48:45;3.22;;;1.00;;
22470;SDS011;11402;51.374;6.594;2022-11-15T12:51:19;2.75;;;1.13;;
22470;SDS011;11402;51.374;6.594;2022-11-15T12:53:47;6.47;;;1.05;;
22470;SDS011;11402;51.374;6.594;2022-11-15T13:06:48;4.53;;;1.20;;
22470;SDS011;11402;51.374;6.594;2022-11-15T13:14:56;3.28;;;1.00;;
22470;SDS011;11402;51.374;6.594;2022-11-15T13:17:32;4.78;;;0.90;;
22470;SDS011;11402;51.374;6.594;2022-11-15T13:27:57;3.00;;;1.20;;
22470;SDS011;11402;51.374;6.594;2022-11-15T13:30:31;2.17;;;0.93;;
22470;SDS011;11402;51.374;6.594;2022-11-15T13:32:58;2.88;;;1.08;;
22470;SDS011;11402;51.374;6.594;2022-11-15T13:35:33;4.03;;;0.95;;
22470;SDS011;11402;51.374;6.594;2022-11-15T13:38:05;4.45;;;1.00;;
22470;SDS011;11402;51.374;6.594;2022-11-15T13:40:35;2.40;;;0.70;;
22470;SDS011;11402;51.374;6.594;2022-11-15T13:43:17;2.08;;;0.90;;
22470;SDS011;11402;51.374;6.594;2022-11-15T13:48:51;1.98;;;0.90;;
22470;SDS011;11402;51.374;6.594;2022-11-15T13:51:24;3.60;;;0.80;;
22470;SDS011;11402;51.374;6.594;2022-11-15T13:53:58;6.68;;;1.00;;
22470;SDS011;11402;51.374;6.594;2022-11-15T13:56:37;2.72;;;1.05;;
22470;SDS011;11402;51.374;6.594;2022-11-15T13:59:10;4.65;;;1.30;;
22470;SDS011;11402;51.374;6.594;2022-11-15T14:01:43;4.90;;;1.10;;
22470;SDS011;11402;51.374;6.594;2022-11-15T14:04:09;3.60;;;1.00;;
22470;SDS011;11402;51.374;6.594;2022-11-15T14:06:43;3.95;;;1.10;;
22470;SDS011;11402;51.374;6.594;2022-11-15T14:09:25;3.75;;;1.45;;
22470;SDS011;11402;51.374;6.594;2022-11-15T14:14:48;5.40;;;1.23;;
22470;SDS011;11402;51.374;6.594;2022-11-15T14:17:20;5.13;;;1.50;;
22470;SDS011;11402;51.374;6.594;2022-11-15T14:19:58;4.25;;;1.35;;
22470;SDS011;11402;51.374;6.594;2022-11-15T14:27:41;11.23;;;2.38;;
22470;SDS011;11402;51.374;6.594;2022-11-15T14:30:17;4.97;;;1.60;;
22470;SDS011;11402;51.374;6.594;2022-11-15T14:32:44;6.03;;;2.60;;
22470;SDS011;11402;51.374;6.594;2022-11-15T14:35:17;6.50;;;1.70;;
22470;SDS011;11402;51.374;6.594;2022-11-15T14:37:44;7.25;;;1.83;;
22470;SDS011;11402;51.374;6.594;2022-11-15T14:40:12;3.63;;;2.00;;
22470;SDS011;11402;51.374;6.594;2022-11-15T14:42:39;2.90;;;1.55;;
22470;SDS011;11402;51.374;6.594;2022-11-15T14:45:26;7.10;;;1.48;;
22470;SDS011;11402;51.374;6.594;2022-11-15T14:47:52;4.65;;;1.20;;
22470;SDS011;11402;51.374;6.594;2022-11-15T14:50:19;4.65;;;1.48;;
22470;SDS011;11402;51.374;6.594;2022-11-15T14:52:46;5.00;;;1.30;;
22470;SDS011;11402;51.374;6.594;2022-11-15T14:55:20;4.60;;;1.67;;
22470;SDS011;11402;51.374;6.594;2022-11-15T14:57:54;5.28;;;1.77;;
22470;SDS011;11402;51.374;6.594;2022-11-15T15:00:20;3.85;;;1.73;;
22470;SDS011;11402;51.374;6.594;2022-11-15T15:02:47;8.38;;;2.38;;
22470;SDS011;11402;51.374;6.594;2022-11-15T15:05:23;13.65;;;7.45;;
22470;SDS011;11402;51.374;6.594;2022-11-15T15:07:49;9.25;;;4.80;;
22470;SDS011;11402;51.374;6.594;2022-11-15T15:10:16;5.25;;;2.60;;
22470;SDS011;11402;51.374;6.594;2022-11-15T15:12:42;5.30;;;2.25;;
22470;SDS011;11402;51.374;6.594;2022-11-15T15:15:15;14.13;;;9.40;;
22470;SDS011;11402;51.374;6.594;2022-11-15T15:17:43;9.20;;;2.75;;
22470;SDS011;11402;51.374;6.594;2022-11-15T15:20:08;3.75;;;2.65;;
22470;SDS011;11402;51.374;6.594;2022-11-15T15:22:35;6.03;;;2.70;;
22470;SDS011;11402;51.374;6.594;2022-11-15T15:25:02;15.73;;;7.88;;
22470;SDS011;11402;51.374;6.594;2022-11-15T15:27:29;14.57;;;8.90;;
22470;SDS011;11402;51.374;6.594;2022-11-15T15:29:54;19.23;;;11.80;;
22470;SDS011;11402;51.374;6.594;2022-11-15T15:32:20;12.60;;;7.18;;
22470;SDS011;11402;51.374;6.594;2022-11-15T15:34:46;10.85;;;5.60;;
22470;SDS011;11402;51.374;6.594;2022-11-15T15:37:19;6.32;;;2.70;;
22470;SDS011;11402;51.374;6.594;2022-11-15T15:39:54;9.50;;;4.80;;
22470;SDS011;11402;51.374;6.594;2022-11-15T15:42:21;19.90;;;11.48;;
22470;SDS011;11402;51.374;6.594;2022-11-15T15:44:47;10.70;;;4.30;;
22470;SDS011;11402;51.374;6.594;2022-11-15T15:47:15;8.10;;;3.70;;
22470;SDS011;11402;51.374;6.594;2022-11-15T15:49:43;9.40;;;6.85;;
22470;SDS011;11402;51.374;6.594;2022-11-15T15:52:09;22.05;;;15.48;;
22470;SDS011;11402;51.374;6.594;2022-11-15T15:54:34;8.68;;;5.82;;
22470;SDS011;11402;51.374;6.594;2022-11-15T15:57:00;8.23;;;4.00;;
22470;SDS011;11402;51.374;6.594;2022-11-15T15:59:26;7.38;;;3.47;;
22470;SDS011;11402;51.374;6.594;2022-11-15T16:01:51;6.40;;;3.17;;
22470;SDS011;11402;51.374;6.594;2022-11-15T16:04:17;8.88;;;5.07;;
22470;SDS011;11402;51.374;6.594;2022-11-15T16:06:42;9.15;;;5.45;;
22470;SDS011;11402;51.374;6.594;2022-11-15T16:09:13;6.75;;;3.25;;
22470;SDS011;11402;51.374;6.594;2022-11-15T16:11:40;4.25;;;2.88;;
22470;SDS011;11402;51.374;6.594;2022-11-15T16:14:07;7.47;;;3.55;;
22470;SDS011;11402;51.374;6.594;2022-11-15T16:16:33;8.02;;;5.65;;
22470;SDS011;11402;51.374;6.594;2022-11-15T16:19:00;8.73;;;4.75;;
22470;SDS011;11402;51.374;6.594;2022-11-15T16:21:26;3.60;;;2.47;;
22470;SDS011;11402;51.374;6.594;2022-11-15T16:23:52;6.32;;;4.80;;
22470;SDS011;11402;51.374;6.594;2022-11-15T16:26:22;7.35;;;3.78;;
22470;SDS011;11402;51.374;6.594;2022-11-15T16:28:50;9.73;;;5.53;;
22470;SDS011;11402;51.374;6.594;2022-11-15T16:31:16;5.35;;;3.90;;
22470;SDS011;11402;51.374;6.594;2022-11-15T16:33:44;5.32;;;2.78;;
22470;SDS011;11402;51.374;6.594;2022-11-15T16:36:24;3.13;;;2.55;;
22470;SDS011;11402;51.374;6.594;2022-11-15T16:38:51;9.02;;;7.32;;
22470;SDS011;11402;51.374;6.594;2022-11-15T16:41:17;10.95;;;6.50;;
22470;SDS011;11402;51.374;6.594;2022-11-15T16:43:49;4.72;;;3.60;;
22470;SDS011;11402;51.374;6.594;2022-11-15T16:46:23;5.20;;;3.30;;
22470;SDS011;11402;51.374;6.594;2022-11-15T16:48:50;4.35;;;2.30;;
22470;SDS011;11402;51.374;6.594;2022-11-15T16:51:16;4.95;;;2.90;;